Time;durP1;ratioP1;P1;durP2;ratioP2;P2;SDS_P1;SDS_P2;PMS_P1;PMS_P2;Temp;Humidity;BMP_temperature;BMP_pressure;BME280_temperature;BME280_humidity;BME280_pressure;Samples;Min_cycle;Max_cycle;Signal;HPM_P1;HPM_P2
2022/11/19 00:02:07;;;;;;;1.65;1.55;;;-1.60;99.90;;;;;;4373036;32;20068;-62
2022/11/19 00:04:32;;;;;;;0.95;0.95;;;-1.90;99.90;;;;;;4358611;32;20086;-63
2022/11/19 00:06:58;;;;;;;2.37;1.08;;;-2.10;99.90;;;;;;4354384;32;20292;-63
2022/11/19 00:09:23;;;;;;;2.62;1.70;;;-2.20;99.90;;;;;;4369796;32;20079;-62
2022/11/19 00:12:57;;;;;;;0.70;0.70;;;-2.30;99.90;;;;;;4373329;32;20063;-62
2022/11/19 00:14:34;;;;;;;0.88;0.88;;;-2.10;99.90;;;;;;4376621;32;20195;-60
2022/11/19 00:17:00;;;;;;;0.70;0.70;;;-2.00;99.90;;;;;;4370887;32;20046;-61
2022/11/19 00:19:26;;;;;;;0.85;0.85;;;-1.90;99.90;;;;;;4372009;32;20089;-60
2022/11/19 00:21:52;;;;;;;0.60;0.60;;;-1.90;99.90;;;;;;4368827;32;20078;-62
2022/11/19 00:24:18;;;;;;;0.65;0.65;;;-1.90;99.90;;;;;;4369278;32;20024;-62
2022/11/19 00:26:43;;;;;;;0.80;0.80;;;-1.90;99.90;;;;;;4371588;32;20090;-60
2022/11/19 00:29:11;;;;;;;0.60;0.60;;;-1.90;99.90;;;;;;4371127;32;20063;-62
2022/11/19 00:31:36;;;;;;;2.17;1.98;;;-2.00;99.90;;;;;;4370806;32;20075;-61
2022/11/19 00:34:02;;;;;;;1.20;1.10;;;-2.00;99.90;;;;;;4362375;32;20066;-63
2022/11/19 00:36:28;;;;;;;0.75;0.75;;;-1.90;99.90;;;;;;4354295;32;20091;-63
2022/11/19 00:38:53;;;;;;;0.62;0.62;;;-2.00;99.90;;;;;;4370261;32;20058;-61
2022/11/19 00:41:19;;;;;;;10.93;2.33;;;-1.90;99.90;;;;;;4371478;32;20088;-63
2022/11/19 00:43:46;;;;;;;0.70;0.70;;;-2.10;99.90;;;;;;4370764;32;20106;-61
2022/11/19 00:46:13;;;;;;;0.90;0.90;;;-2.40;99.90;;;;;;4373647;32;20074;-63
2022/11/19 00:48:38;;;;;;;1.42;1.00;;;-2.40;99.90;;;;;;4373224;32;20096;-61
2022/11/19 00:51:05;;;;;;;0.90;0.90;;;-2.50;99.90;;;;;;4371255;32;20099;-62
2022/11/19 00:53:31;;;;;;;0.50;0.50;;;-2.60;99.90;;;;;;4366077;32;20024;-61
2022/11/19 00:56:00;;;;;;;0.73;0.73;;;-2.50;99.90;;;;;;4373442;32;20139;-60
2022/11/19 00:58:26;;;;;;;0.60;0.60;;;-2.40;99.90;;;;;;4374212;32;20070;-61
2022/11/19 01:00:52;;;;;;;1.00;1.00;;;-2.30;99.90;;;;;;4374095;32;20108;-62
2022/11/19 01:03:17;;;;;;;0.75;0.75;;;-2.30;99.90;;;;;;4364782;32;20075;-63
2022/11/19 01:05:43;;;;;;;0.90;0.90;;;-2.20;99.90;;;;;;4356640;32;20121;-62
2022/11/19 01:08:09;;;;;;;2.85;1.50;;;-2.20;99.90;;;;;;4360933;32;20071;-62
2022/11/19 01:10:35;;;;;;;0.70;0.70;;;-2.30;99.90;;;;;;4372623;32;20092;-62
2022/11/19 01:14:01;;;;;;;1.05;0.95;;;-2.20;99.90;;;;;;4370919;32;20083;-63
2022/11/19 01:15:48;;;;;;;0.60;0.60;;;-2.20;99.90;;;;;;4377188;32;20090;-60
2022/11/19 01:18:15;;;;;;;6.78;1.45;;;-2.40;99.90;;;;;;4365657;32;20075;-62
2022/11/19 01:20:40;;;;;;;1.70;1.60;;;-2.50;99.90;;;;;;4377173;32;20071;-63
2022/11/19 01:23:06;;;;;;;0.85;0.85;;;-2.40;99.90;;;;;;4362137;32;20071;-63
2022/11/19 01:25:31;;;;;;;4.00;2.12;;;-2.40;99.90;;;;;;4373905;32;20119;-62
2022/11/19 01:27:57;;;;;;;0.80;0.80;;;-2.40;99.90;;;;;;4373037;32;20062;-64
2022/11/19 01:30:23;;;;;;;0.50;0.50;;;-2.40;99.90;;;;;;4370292;32;20075;-63
2022/11/19 01:32:48;;;;;;;3.53;1.95;;;-2.40;99.90;;;;;;4367288;32;20582;-63
2022/11/19 01:35:14;;;;;;;1.65;1.25;;;-2.40;99.90;;;;;;4355195;32;20074;-63
2022/11/19 01:37:40;;;;;;;0.60;0.60;;;-2.40;99.90;;;;;;4354804;32;20098;-63
2022/11/19 01:40:06;;;;;;;0.50;0.50;;;-2.30;99.90;;;;;;4370692;32;20219;-60
2022/11/19 01:42:48;;;;;;;0.62;0.62;;;-2.30;99.90;;;;;;4370734;32;20088;-62
2022/11/19 01:45:36;;;;;;;1.25;1.15;;;-2.30;99.90;;;;;;4372778;32;20094;-61
2022/11/19 01:48:06;;;;;;;1.10;1.10;;;-2.50;99.90;;;;;;4377283;32;20134;-62
2022/11/19 01:50:36;;;;;;;0.70;0.70;;;-2.60;99.90;;;;;;4371831;32;20051;-63
2022/11/19 01:53:02;;;;;;;0.77;0.77;;;-2.70;99.90;;;;;;4361961;32;20090;-62
2022/11/19 01:55:28;;;;;;;0.90;0.90;;;-2.60;99.90;;;;;;4372135;32;20094;-61
2022/11/19 01:57:58;;;;;;;0.60;0.60;;;-2.60;99.90;;;;;;4373140;32;20071;-61
2022/11/19 02:00:25;;;;;;;0.90;0.90;;;-2.50;99.90;;;;;;4371348;32;20119;-62
2022/11/19 02:02:51;;;;;;;0.80;0.80;;;-2.50;99.90;;;;;;4368120;32;20087;-63
2022/11/19 02:05:17;;;;;;;0.50;0.50;;;-2.40;99.90;;;;;;4353593;32;20064;-63
2022/11/19 02:07:52;;;;;;;1.25;1.15;;;-2.40;99.90;;;;;;4356099;32;20092;-63
2022/11/19 02:10:17;;;;;;;0.50;0.50;;;-2.50;99.90;;;;;;4371071;32;20107;-63
2022/11/19 02:12:55;;;;;;;0.50;0.50;;;-2.80;99.90;;;;;;4370585;32;20050;-60
2022/11/19 02:15:35;;;;;;;0.50;0.50;;;-2.90;99.90;;;;;;4375576;32;20098;-61
2022/11/19 02:18:35;;;;;;;0.88;0.88;;;-2.90;99.90;;;;;;4375087;32;20076;-62
2022/11/19 02:21:25;;;;;;;0.50;0.50;;;-2.90;99.90;;;;;;4372122;32;20127;-63
2022/11/19 02:23:58;;;;;;;;;;;-2.80;99.90;;;;;;4370985;32;20076;-61
2022/11/19 02:26:49;;;;;;;0.60;0.60;;;-2.70;99.90;;;;;;4375969;32;19949;-62
2022/11/19 02:29:44;;;;;;;3.05;1.42;;;-2.60;99.90;;;;;;4375707;32;20106;-63
2022/11/19 02:32:26;;;;;;;0.90;0.90;;;-2.60;99.90;;;;;;4372503;32;20067;-62
2022/11/19 02:34:57;;;;;;;1.40;1.00;;;-2.90;99.90;;;;;;4358112;32;20067;-63
2022/11/19 02:37:43;;;;;;;0.88;0.88;;;-3.00;99.90;;;;;;4363664;32;20103;-62
2022/11/19 02:40:24;;;;;;;0.68;0.68;;;-3.00;99.90;;;;;;4372963;32;20070;-62
2022/11/19 02:42:57;;;;;;;0.95;0.95;;;-3.10;99.90;;;;;;4372071;32;20070;-61
2022/11/19 02:45:29;;;;;;;1.25;1.05;;;-3.10;99.90;;;;;;4376963;32;20150;-62
2022/11/19 02:47:59;;;;;;;0.60;0.60;;;-3.00;99.90;;;;;;4374338;32;20142;-62
2022/11/19 02:50:30;;;;;;;1.15;1.10;;;-3.00;99.90;;;;;;4373386;32;20083;-63
2022/11/19 02:52:56;;;;;;;0.93;0.93;;;-2.90;99.90;;;;;;4368068;32;20043;-62
2022/11/19 02:55:22;;;;;;;0.62;0.62;;;-2.90;99.90;;;;;;4374675;32;20090;-61
2022/11/19 02:57:58;;;;;;;0.50;0.50;;;-2.80;99.90;;;;;;4373628;32;20130;-60
2022/11/19 03:04:31;;;;;;;1.25;1.20;;;-2.60;99.90;;;;;;4369723;32;20104;-63
2022/11/19 03:06:08;;;;;;;0.62;0.62;;;-2.60;99.90;;;;;;4357259;32;20149;-63
2022/11/19 03:08:34;;;;;;;3.58;2.60;;;-2.60;99.90;;;;;;4368292;32;20088;-63
2022/11/19 03:11:11;;;;;;;0.62;0.62;;;-2.60;99.90;;;;;;4372192;32;20051;-62
2022/11/19 03:16:52;;;;;;;0.60;0.60;;;-2.60;99.90;;;;;;4380707;32;20083;-61
2022/11/19 03:19:35;;;;;;;0.62;0.62;;;-2.80;99.90;;;;;;4375501;32;20050;-62
2022/11/19 03:22:18;;;;;;;1.23;1.15;;;-3.10;99.90;;;;;;4367695;32;20104;-62
2022/11/19 03:24:50;;;;;;;0.80;0.80;;;-3.20;99.90;;;;;;4371358;32;20083;-62
2022/11/19 03:27:22;;;;;;;0.50;0.50;;;-3.20;99.90;;;;;;4372869;32;20114;-61
2022/11/19 03:29:52;;;;;;;0.52;0.52;;;-3.10;99.90;;;;;;4373342;32;20023;-63
2022/11/19 03:32:21;;;;;;;1.12;1.12;;;-3.00;99.90;;;;;;4378848;32;20106;-63
2022/11/19 03:34:53;;;;;;;0.90;0.88;;;-3.00;99.90;;;;;;4354495;32;20107;-62
2022/11/19 03:37:22;;;;;;;8.43;2.58;;;-3.10;99.90;;;;;;4357840;32;20158;-62
2022/11/19 03:39:50;;;;;;;0.50;0.50;;;-3.20;99.90;;;;;;4372220;32;20076;-63
2022/11/19 03:42:18;;;;;;;0.80;0.80;;;-3.20;99.90;;;;;;4371557;32;20408;-62
2022/11/19 03:44:48;;;;;;;1.75;1.35;;;-3.10;99.90;;;;;;4374797;32;20075;-61
2022/11/19 03:47:18;;;;;;;0.60;0.60;;;-3.00;99.90;;;;;;4376569;32;20103;-62
2022/11/19 03:49:48;;;;;;;0.77;0.77;;;-3.10;99.90;;;;;;4373083;32;20064;-62
2022/11/19 03:52:18;;;;;;;0.50;0.50;;;-3.20;99.90;;;;;;4365997;32;20087;-61
2022/11/19 03:54:44;;;;;;;0.85;0.85;;;-3.20;99.90;;;;;;4373743;32;20079;-63
2022/11/19 03:57:12;;;;;;;0.50;0.50;;;-3.30;99.90;;;;;;4373692;32;20067;-60
2022/11/19 03:59:37;;;;;;;0.98;0.93;;;-3.30;99.90;;;;;;4373241;32;20039;-62
2022/11/19 04:02:06;;;;;;;0.50;0.50;;;-3.30;99.90;;;;;;4373107;32;20116;-60
2022/11/19 04:04:35;;;;;;;0.50;0.50;;;-3.30;99.90;;;;;;4349449;32;20086;-63
2022/11/19 04:07:17;;;;;;;0.73;0.73;;;-3.30;99.90;;;;;;4355549;32;20079;-62
2022/11/19 04:09:43;;;;;;;0.60;0.60;;;-3.10;99.90;;;;;;4371485;32;20059;-62
2022/11/19 04:12:18;;;;;;;1.85;1.35;;;-2.90;99.90;;;;;;4370882;32;20075;-63
2022/11/19 04:14:44;;;;;;;0.60;0.60;;;-2.80;99.90;;;;;;4377324;32;20163;-63
2022/11/19 04:17:10;;;;;;;0.60;0.60;;;-2.90;99.90;;;;;;4373352;32;20086;-61
2022/11/19 04:19:36;;;;;;;0.62;0.62;;;-2.80;99.90;;;;;;4371377;32;20111;-60
2022/11/19 04:22:01;;;;;;;0.50;0.50;;;-2.80;99.90;;;;;;4367313;32;20086;-62
2022/11/19 04:24:26;;;;;;;6.82;2.72;;;-2.80;99.90;;;;;;4368629;32;20103;-62
2022/11/19 04:26:52;;;;;;;0.62;0.62;;;-2.80;99.90;;;;;;4373190;32;20055;-61
2022/11/19 04:29:17;;;;;;;1.95;1.25;;;-2.80;99.90;;;;;;4374725;32;20091;-60
2022/11/19 04:31:43;;;;;;;1.85;1.55;;;-2.80;99.90;;;;;;4375125;32;20051;-62
2022/11/19 04:34:08;;;;;;;0.47;0.47;;;-2.80;99.90;;;;;;4362577;32;20075;-63
2022/11/19 04:36:34;;;;;;;0.50;0.50;;;-2.70;99.90;;;;;;4353528;32;20172;-63
2022/11/19 04:39:00;;;;;;;0.85;0.85;;;-2.70;99.90;;;;;;4370933;32;20074;-61
2022/11/19 04:41:25;;;;;;;0.85;0.85;;;-2.70;99.90;;;;;;4371784;32;20070;-62
2022/11/19 04:43:51;;;;;;;0.47;0.47;;;-2.60;99.90;;;;;;4373329;32;20192;-63
2022/11/19 04:46:17;;;;;;;0.40;0.40;;;-2.70;99.90;;;;;;4374427;32;20083;-62
2022/11/19 04:48:42;;;;;;;1.37;1.30;;;-2.80;99.90;;;;;;4372930;32;20090;-62
2022/11/19 04:51:08;;;;;;;0.65;0.65;;;-2.80;99.90;;;;;;4370181;32;20112;-63
2022/11/19 04:53:33;;;;;;;0.82;0.82;;;-2.70;99.90;;;;;;4364645;32;20078;-62
2022/11/19 04:55:59;;;;;;;1.12;1.05;;;-2.70;99.90;;;;;;4374067;32;20051;-62
2022/11/19 04:58:24;;;;;;;1.30;1.20;;;-2.70;99.90;;;;;;4372427;32;20066;-62
2022/11/19 05:00:50;;;;;;;0.75;0.75;;;-2.70;99.90;;;;;;4374004;32;21238;-61
2022/11/19 05:03:15;;;;;;;0.70;0.70;;;-2.70;99.90;;;;;;4365867;32;20104;-63
2022/11/19 05:05:40;;;;;;;0.50;0.50;;;-2.60;99.90;;;;;;4355853;32;20083;-63
2022/11/19 05:08:06;;;;;;;0.68;0.68;;;-2.70;99.90;;;;;;4358190;32;20147;-62
2022/11/19 05:10:31;;;;;;;0.62;0.62;;;-2.80;99.90;;;;;;4372519;32;20095;-61
2022/11/19 05:12:57;;;;;;;0.50;0.50;;;-2.90;99.90;;;;;;4373414;32;20088;-61
2022/11/19 05:15:22;;;;;;;2.75;1.42;;;-2.80;99.90;;;;;;4374433;32;20087;-62
2022/11/19 05:17:48;;;;;;;0.60;0.60;;;-2.80;99.90;;;;;;4373027;32;20127;-59
2022/11/19 05:20:14;;;;;;;1.90;1.55;;;-2.70;99.90;;;;;;4370058;32;20078;-63
2022/11/19 05:22:39;;;;;;;0.82;0.82;;;-2.70;99.90;;;;;;4363514;32;20063;-63
2022/11/19 05:25:05;;;;;;;1.15;1.12;;;-2.70;99.90;;;;;;4371063;32;20387;-62
2022/11/19 05:27:30;;;;;;;0.50;0.50;;;-2.70;99.90;;;;;;4372690;32;20091;-63
2022/11/19 05:29:56;;;;;;;0.47;0.47;;;-2.70;99.90;;;;;;4369907;32;20178;-61
2022/11/19 05:32:21;;;;;;;0.70;0.70;;;-2.70;99.90;;;;;;4373383;32;20384;-63
2022/11/19 05:34:47;;;;;;;1.45;1.37;;;-2.70;99.90;;;;;;4355228;32;20078;-62
2022/11/19 05:37:13;;;;;;;0.70;0.70;;;-2.70;99.90;;;;;;4357161;32;20610;-62
2022/11/19 05:39:38;;;;;;;0.70;0.70;;;-2.70;99.90;;;;;;4370265;32;20062;-62
2022/11/19 05:42:03;;;;;;;0.40;0.40;;;-2.70;99.90;;;;;;4372270;32;20063;-62
2022/11/19 05:44:29;;;;;;;1.40;1.08;;;-2.70;99.90;;;;;;4373325;32;20082;-62
2022/11/19 05:46:56;;;;;;;0.40;0.40;;;-2.70;99.90;;;;;;4371756;32;20095;-59
2022/11/19 05:49:22;;;;;;;0.50;0.50;;;-2.60;99.90;;;;;;4369846;32;20122;-62
2022/11/19 05:51:47;;;;;;;2.37;1.60;;;-2.60;99.90;;;;;;4371469;32;20078;-63
2022/11/19 05:54:13;;;;;;;0.50;0.50;;;-2.70;99.90;;;;;;4368290;32;20091;-62
2022/11/19 05:56:38;;;;;;;3.40;1.35;;;-2.70;99.90;;;;;;4375349;32;20067;-63
2022/11/19 05:59:04;;;;;;;1.23;1.12;;;-2.70;99.90;;;;;;4375052;32;20067;-62
2022/11/19 06:01:29;;;;;;;0.60;0.60;;;-2.60;99.90;;;;;;4376520;32;20103;-62
2022/11/19 06:03:55;;;;;;;0.85;0.85;;;-2.60;99.90;;;;;;4365421;32;20087;-63
2022/11/19 06:06:21;;;;;;;0.60;0.60;;;-2.70;99.90;;;;;;4356992;32;20086;-63
2022/11/19 06:08:47;;;;;;;0.88;0.88;;;-2.70;99.90;;;;;;4372506;32;20067;-60
2022/11/19 06:12:13;;;;;;;0.60;0.60;;;-2.70;99.90;;;;;;4373982;32;20076;-62
2022/11/19 06:13:59;;;;;;;1.02;0.95;;;-2.80;99.90;;;;;;4379794;32;20119;-62
2022/11/19 06:16:26;;;;;;;1.48;1.20;;;-2.80;99.90;;;;;;4375516;32;20062;-61
2022/11/19 06:18:52;;;;;;;0.60;0.60;;;-2.80;99.90;;;;;;4374676;32;20097;-63
2022/11/19 06:21:17;;;;;;;0.70;0.70;;;-2.80;99.90;;;;;;4372669;32;20095;-62
2022/11/19 06:23:43;;;;;;;0.52;0.52;;;-2.70;99.90;;;;;;4365730;32;20096;-62
2022/11/19 06:26:09;;;;;;;0.40;0.40;;;-2.70;99.90;;;;;;4377491;32;20063;-63
2022/11/19 06:28:34;;;;;;;0.50;0.50;;;-2.70;99.90;;;;;;4375997;32;20082;-63
2022/11/19 06:31:00;;;;;;;0.62;0.62;;;-2.80;99.90;;;;;;4376748;32;20110;-62
2022/11/19 06:33:26;;;;;;;1.30;1.20;;;-2.80;99.90;;;;;;4368223;32;20201;-63
2022/11/19 06:35:51;;;;;;;0.50;0.50;;;-2.70;99.90;;;;;;4356344;32;20127;-62
2022/11/19 06:38:17;;;;;;;0.50;0.50;;;-2.70;99.90;;;;;;4364467;32;20106;-63
2022/11/19 06:40:44;;;;;;;2.28;1.70;;;-2.70;99.90;;;;;;4373864;32;20082;-61
2022/11/19 06:43:10;;;;;;;0.98;0.98;;;-2.70;99.90;;;;;;4373988;32;20091;-62
2022/11/19 06:45:36;;;;;;;0.50;0.50;;;-2.70;99.90;;;;;;4377516;32;20794;-61
2022/11/19 06:48:01;;;;;;;1.85;1.70;;;-2.70;99.90;;;;;;4376749;32;20067;-63
2022/11/19 06:50:27;;;;;;;1.05;1.05;;;-2.60;99.90;;;;;;4375314;32;20062;-62
2022/11/19 06:52:52;;;;;;;0.98;0.93;;;-2.70;99.90;;;;;;4365576;32;20075;-63
2022/11/19 06:55:18;;;;;;;0.57;0.57;;;-2.70;99.90;;;;;;4374729;32;20102;-62
2022/11/19 06:57:43;;;;;;;0.90;0.90;;;-2.80;99.90;;;;;;4373453;32;20119;-61
2022/11/19 07:00:09;;;;;;;0.60;0.60;;;-2.80;99.90;;;;;;4376674;32;20067;-62
2022/11/19 07:02:35;;;;;;;1.67;1.33;;;-2.70;99.90;;;;;;4372921;32;20232;-62
2022/11/19 07:05:00;;;;;;;0.98;0.98;;;-2.70;99.90;;;;;;4359691;32;20360;-62
2022/11/19 07:07:26;;;;;;;1.25;1.15;;;-2.60;99.90;;;;;;4361972;32;20074;-61
2022/11/19 07:09:51;;;;;;;0.55;0.55;;;-2.70;99.90;;;;;;4372574;32;20124;-63
2022/11/19 07:12:17;;;;;;;0.65;0.65;;;-2.80;99.90;;;;;;4375887;32;20051;-62
2022/11/19 07:14:42;;;;;;;1.58;1.48;;;-2.60;99.90;;;;;;4377416;32;20054;-62
2022/11/19 07:17:08;;;;;;;1.45;1.35;;;-2.60;99.90;;;;;;4376643;32;20047;-63
2022/11/19 07:19:33;;;;;;;0.50;0.50;;;-2.50;99.90;;;;;;4378284;32;20103;-62
2022/11/19 07:21:59;;;;;;;0.93;0.93;;;-2.60;99.90;;;;;;4369825;32;20095;-62
2022/11/19 07:24:24;;;;;;;0.50;0.50;;;-2.60;99.90;;;;;;4372073;32;20154;-62
2022/11/19 07:26:50;;;;;;;0.55;0.55;;;-2.60;99.90;;;;;;4374664;32;20091;-62
2022/11/19 07:29:15;;;;;;;0.93;0.93;;;-2.60;99.90;;;;;;4377896;32;20055;-61
2022/11/19 07:31:41;;;;;;;0.75;0.75;;;-2.50;99.90;;;;;;4370841;32;80141;-63
2022/11/19 07:34:08;;;;;;;1.02;1.02;;;-2.60;99.90;;;;;;4362914;32;20070;-62
2022/11/19 07:36:33;;;;;;;0.70;0.70;;;-2.60;99.90;;;;;;4358184;32;20102;-62
2022/11/19 07:38:59;;;;;;;0.45;0.45;;;-2.60;99.90;;;;;;4370026;32;20104;-63
2022/11/19 07:42:55;;;;;;;0.55;0.55;;;-2.60;99.90;;;;;;4373494;32;20071;-62
2022/11/19 07:44:10;;;;;;;0.50;0.50;;;-2.50;99.90;;;;;;4374816;32;20063;-62
2022/11/19 07:46:35;;;;;;;1.17;1.17;;;-2.40;99.90;;;;;;4373360;32;20095;-62
2022/11/19 07:49:01;;;;;;;1.55;1.40;;;-2.30;99.90;;;;;;4373468;32;20076;-63
2022/11/19 07:51:26;;;;;;;0.75;0.75;;;-2.30;99.90;;;;;;4372342;32;20190;-63
2022/11/19 07:53:53;;;;;;;0.50;0.50;;;-2.40;99.90;;;;;;4367509;32;20087;-62
2022/11/19 07:56:19;;;;;;;0.85;0.85;;;-2.30;99.90;;;;;;4375332;32;20071;-63
2022/11/19 07:58:44;;;;;;;9.98;2.83;;;-2.20;99.90;;;;;;4377011;32;20083;-62
2022/11/19 08:01:12;;;;;;;1.37;1.25;;;-2.00;99.90;;;;;;4373802;32;20079;-62
2022/11/19 08:03:40;;;;;;;0.68;0.68;;;-1.90;99.90;;;;;;4369603;32;20055;-63
2022/11/19 08:06:06;;;;;;;0.65;0.65;;;-1.70;99.90;;;;;;4357598;32;20074;-63
2022/11/19 08:08:32;;;;;;;0.45;0.45;;;-1.50;99.90;;;;;;4363769;32;20095;-62
2022/11/19 08:11:03;;;;;;;3.25;1.87;;;-1.40;99.90;;;;;;4374970;32;20092;-63
2022/11/19 08:13:29;;;;;;;2.72;1.33;;;-1.30;99.90;;;;;;4371869;32;20082;-62
2022/11/19 08:16:00;;;;;;;2.85;1.60;;;-1.30;99.90;;;;;;4374230;32;20087;-63
2022/11/19 08:18:26;;;;;;;0.52;0.52;;;-1.20;99.90;;;;;;4373907;32;20094;-63
2022/11/19 08:20:52;;;;;;;0.50;0.50;;;-1.20;99.90;;;;;;4371206;32;20095;-63
2022/11/19 08:23:17;;;;;;;0.70;0.70;;;-1.10;99.90;;;;;;4365028;32;20252;-61
2022/11/19 08:25:43;;;;;;;1.12;0.70;;;-1.10;99.90;;;;;;4372763;32;20111;-62
2022/11/19 08:28:10;;;;;;;0.52;0.52;;;-1.10;99.90;;;;;;4373679;32;20091;-62
2022/11/19 08:30:38;;;;;;;0.50;0.50;;;-1.00;99.90;;;;;;4373408;32;20143;-62
2022/11/19 08:33:04;;;;;;;0.65;0.65;;;-1.00;99.90;;;;;;4370197;32;20093;-63
2022/11/19 08:35:29;;;;;;;0.60;0.60;;;-1.10;99.90;;;;;;4357530;32;20103;-63
2022/11/19 08:37:56;;;;;;;1.50;1.40;;;-1.00;99.90;;;;;;4357171;32;20079;-63
2022/11/19 08:40:22;;;;;;;0.93;0.68;;;-0.90;99.90;;;;;;4375066;32;20086;-61
2022/11/19 08:43:04;;;;;;;1.00;0.95;;;-0.90;99.90;;;;;;4373625;32;20317;-63
2022/11/19 08:45:33;;;;;;;0.60;0.60;;;-0.80;99.90;;;;;;4374320;32;20152;-61
2022/11/19 08:48:01;;;;;;;0.43;0.43;;;-0.80;99.90;;;;;;4373788;32;20078;-63
2022/11/19 08:50:27;;;;;;;0.40;0.40;;;-0.80;99.90;;;;;;4375259;32;20089;-62
2022/11/19 08:52:55;;;;;;;0.50;0.50;;;-0.80;99.90;;;;;;4363853;32;20094;-63
2022/11/19 08:55:21;;;;;;;0.40;0.40;;;-0.80;99.90;;;;;;4372543;32;20075;-62
2022/11/19 08:57:47;;;;;;;0.40;0.40;;;-0.80;99.90;;;;;;4375020;32;20083;-63
2022/11/19 09:00:13;;;;;;;0.50;0.50;;;-0.80;99.90;;;;;;4373365;32;20083;-62
2022/11/19 09:02:39;;;;;;;0.60;0.60;;;-0.70;99.90;;;;;;4370178;32;20122;-63
2022/11/19 09:05:04;;;;;;;10.95;2.60;;;-0.60;99.90;;;;;;4358975;32;20130;-63
2022/11/19 09:07:30;;;;;;;1.00;1.00;;;-0.50;99.90;;;;;;4356236;32;20155;-63
2022/11/19 09:09:55;;;;;;;0.60;0.60;;;-0.40;99.90;;;;;;4372231;32;20906;-63
2022/11/19 09:12:21;;;;;;;0.65;0.65;;;-0.30;99.90;;;;;;4370957;32;20078;-63
2022/11/19 09:14:46;;;;;;;0.60;0.60;;;-0.10;99.90;;;;;;4372732;32;20115;-63
2022/11/19 09:17:12;;;;;;;0.40;0.40;;;0.10;99.90;;;;;;4379805;32;20087;-60
2022/11/19 09:19:37;;;;;;;0.82;0.82;;;0.20;99.90;;;;;;4373350;32;20079;-64
2022/11/19 09:22:03;;;;;;;0.60;0.60;;;0.20;99.90;;;;;;4366131;32;20068;-64
2022/11/19 09:24:28;;;;;;;0.93;0.93;;;0.20;99.90;;;;;;4368512;32;20714;-63
2022/11/19 09:26:54;;;;;;;0.68;0.68;;;0.30;99.90;;;;;;4372599;32;20098;-63
2022/11/19 09:29:19;;;;;;;1.27;0.93;;;0.30;99.90;;;;;;4377994;32;20067;-62
2022/11/19 09:31:45;;;;;;;0.50;0.50;;;0.40;99.90;;;;;;4376470;32;20047;-62
2022/11/19 09:34:10;;;;;;;0.40;0.40;;;0.50;99.90;;;;;;4364044;32;20055;-62
2022/11/19 09:36:36;;;;;;;0.60;0.60;;;0.60;99.90;;;;;;4356481;32;20094;-61
2022/11/19 09:39:02;;;;;;;0.40;0.40;;;0.60;99.90;;;;;;4369963;32;20080;-60
2022/11/19 09:41:58;;;;;;;0.40;0.40;;;0.70;99.90;;;;;;4372813;32;20211;-61
2022/11/19 09:44:34;;;;;;;0.47;0.47;;;0.80;99.90;;;;;;4374470;32;20099;-63
2022/11/19 09:47:15;;;;;;;0.98;0.88;;;0.80;99.90;;;;;;4379652;32;20139;-63
2022/11/19 09:49:47;;;;;;;0.40;0.40;;;0.90;99.90;;;;;;4375008;32;20095;-63
2022/11/19 09:52:17;;;;;;;0.95;0.93;;;1.00;99.90;;;;;;4368609;32;20388;-63
2022/11/19 09:54:47;;;;;;;0.70;0.70;;;1.20;99.90;;;;;;4369308;32;20091;-62
2022/11/19 09:57:19;;;;;;;0.68;0.62;;;1.20;99.90;;;;;;4374064;32;20079;-64
2022/11/19 09:59:46;;;;;;;0.50;0.50;;;1.20;99.90;;;;;;4372472;32;20126;-62
2022/11/19 10:02:17;;;;;;;0.62;0.62;;;1.30;99.90;;;;;;4374451;32;20079;-62
2022/11/19 10:04:44;;;;;;;0.40;0.40;;;1.20;99.90;;;;;;4362038;32;20054;-62
2022/11/19 10:07:26;;;;;;;0.60;0.60;;;1.20;99.90;;;;;;4361485;32;20146;-62
2022/11/19 10:10:20;;;;;;;0.40;0.40;;;1.10;99.90;;;;;;4377057;32;20074;-62
2022/11/19 10:13:12;;;;;;;0.50;0.50;;;1.10;99.90;;;;;;4371735;32;20084;-63
2022/11/19 10:16:17;;;;;;;1.60;1.50;;;1.20;99.90;;;;;;4375063;32;20114;-62
2022/11/19 10:19:15;;;;;;;0.70;0.70;;;1.30;99.90;;;;;;4368492;32;20092;-62
2022/11/19 10:21:51;;;;;;;0.47;0.47;;;1.40;99.90;;;;;;4369838;32;20062;-62
2022/11/19 10:24:40;;;;;;;0.40;0.40;;;1.30;99.90;;;;;;4368053;32;20103;-62
2022/11/19 10:27:34;;;;;;;5.18;1.05;;;1.30;99.90;;;;;;4371599;32;20144;-62
2022/11/19 10:30:05;;;;;;;0.40;0.40;;;1.30;99.90;;;;;;4372372;32;20067;-61
2022/11/19 10:32:37;;;;;;;0.40;0.40;;;1.40;99.90;;;;;;4377198;32;20091;-63
2022/11/19 10:35:07;;;;;;;0.57;0.57;;;1.50;99.90;;;;;;4356141;32;20067;-63
2022/11/19 10:37:40;;;;;;;2.08;1.23;;;1.40;99.90;;;;;;4357189;32;20079;-62
2022/11/19 10:40:14;;;;;;;0.50;0.50;;;1.40;99.90;;;;;;4372494;32;20166;-62
2022/11/19 10:42:45;;;;;;;0.37;0.37;;;1.40;99.90;;;;;;4377081;32;20072;-61
2022/11/19 10:45:17;;;;;;;1.15;1.05;;;1.30;99.90;;;;;;4378831;32;20075;-62
2022/11/19 10:48:06;;;;;;;1.37;0.95;;;1.60;99.90;;;;;;4375295;32;20039;-62
2022/11/19 10:50:31;;;;;;;0.65;0.65;;;1.70;99.90;;;;;;4369970;32;20091;-63
2022/11/19 10:53:19;;;;;;;0.40;0.40;;;2.00;99.90;;;;;;4368768;32;20142;-63
2022/11/19 10:55:48;;;;;;;0.75;0.75;;;2.00;99.90;;;;;;4376971;32;20134;-62
2022/11/19 10:58:27;;;;;;;0.40;0.40;;;1.80;99.90;;;;;;4377619;32;20063;-61
2022/11/19 11:00:55;;;;;;;0.50;0.50;;;1.80;99.90;;;;;;4375685;32;20518;-62
2022/11/19 11:03:24;;;;;;;0.50;0.50;;;1.80;99.90;;;;;;4370563;32;20078;-63
2022/11/19 11:05:57;;;;;;;0.35;0.35;;;1.90;99.90;;;;;;4358653;32;20098;-63
2022/11/19 11:08:23;;;;;;;1.10;0.95;;;2.00;99.90;;;;;;4363704;32;20092;-62
2022/11/19 11:10:50;;;;;;;0.40;0.40;;;2.20;99.90;;;;;;4375333;32;20098;-63
2022/11/19 11:14:53;;;;;;;0.30;0.30;;;2.20;99.90;;;;;;4374884;32;20058;-62
2022/11/19 11:16:11;;;;;;;0.50;0.50;;;2.30;99.90;;;;;;4377225;32;20071;-62
2022/11/19 11:18:39;;;;;;;0.40;0.40;;;2.60;99.90;;;;;;4373710;32;20047;-62
2022/11/19 11:21:10;;;;;;;0.50;0.50;;;2.80;99.90;;;;;;4374299;32;20099;-63
2022/11/19 11:23:48;;;;;;;0.47;0.47;;;2.90;99.90;;;;;;4364964;32;20111;-63
2022/11/19 11:26:20;;;;;;;0.40;0.40;;;3.00;99.90;;;;;;4378169;32;20273;-63
2022/11/19 11:28:57;;;;;;;0.40;0.40;;;3.20;99.90;;;;;;4373716;32;20091;-63
2022/11/19 11:31:41;;;;;;;0.37;0.37;;;3.20;99.90;;;;;;4373678;32;20074;-62
2022/11/19 11:34:14;;;;;;;1.75;0.80;;;3.00;99.90;;;;;;4363709;32;20079;-63
2022/11/19 11:36:40;;;;;;;0.55;0.55;;;2.90;99.90;;;;;;4357889;32;20519;-63
2022/11/19 11:39:06;;;;;;;0.40;0.40;;;2.60;99.90;;;;;;4369259;32;20067;-63
2022/11/19 11:41:37;;;;;;;0.40;0.40;;;2.60;99.90;;;;;;4374763;32;20090;-63
2022/11/19 11:44:14;;;;;;;0.30;0.30;;;2.70;99.90;;;;;;4376084;32;20075;-62
2022/11/19 11:46:46;;;;;;;0.30;0.30;;;2.60;99.90;;;;;;4373392;32;20106;-62
2022/11/19 11:49:26;;;;;;;1.02;0.93;;;2.70;99.90;;;;;;4373601;32;20083;-63
2022/11/19 11:52:01;;;;;;;0.50;0.50;;;2.90;99.90;;;;;;4369440;32;20075;-63
2022/11/19 11:54:26;;;;;;;1.15;1.05;;;3.20;99.90;;;;;;4368849;32;20091;-63
2022/11/19 11:56:52;;;;;;;0.40;0.40;;;3.60;99.90;;;;;;4372413;32;20082;-63
2022/11/19 11:59:26;;;;;;;0.40;0.40;;;3.90;99.90;;;;;;4376372;32;20067;-62
2022/11/19 12:01:55;;;;;;;0.30;0.30;;;4.30;99.90;;;;;;4375343;32;20102;-63
2022/11/19 12:04:20;;;;;;;0.50;0.50;;;4.80;99.90;;;;;;4362031;32;20138;-63
2022/11/19 12:07:00;;;;;;;0.35;0.35;;;5.10;99.90;;;;;;4357349;32;20083;-63
2022/11/19 12:09:40;;;;;;;0.50;0.50;;;5.20;99.90;;;;;;4371493;32;20291;-63
2022/11/19 12:12:45;;;;;;;0.32;0.32;;;5.00;99.90;;;;;;4375431;32;20075;-63
2022/11/19 12:15:39;;;;;;;0.77;0.77;;;5.40;99.90;;;;;;4378078;32;20106;-62
2022/11/19 12:18:32;;;;;;;0.30;0.30;;;5.80;99.90;;;;;;4375139;32;20059;-64
2022/11/19 12:21:09;;;;;;;1.52;0.90;;;5.40;99.90;;;;;;4371651;32;20138;-64
2022/11/19 12:23:50;;;;;;;0.57;0.57;;;5.10;99.90;;;;;;4366055;32;20126;-63
2022/11/19 12:26:26;;;;;;;0.50;0.50;;;5.00;99.90;;;;;;4373759;32;20062;-63
2022/11/19 12:29:32;;;;;;;0.62;0.62;;;4.50;99.90;;;;;;4374648;32;20098;-63
2022/11/19 12:32:06;;;;;;;0.40;0.40;;;4.90;99.90;;;;;;4371900;32;20074;-63
2022/11/19 12:34:57;;;;;;;0.50;0.50;;;5.10;99.90;;;;;;4358206;32;20059;-64
2022/11/19 12:37:45;;;;;;;1.08;0.82;;;5.00;99.90;;;;;;4360154;32;20094;-64
2022/11/19 12:40:25;;;;;;;0.40;0.40;;;5.50;99.90;;;;;;4371900;32;20050;-63
2022/11/19 12:43:01;;;;;;;0.40;0.40;;;5.30;99.90;;;;;;4373478;32;20106;-63
2022/11/19 12:46:07;;;;;;;0.40;0.40;;;5.10;99.90;;;;;;4372797;32;20114;-64
2022/11/19 12:48:59;;;;;;;0.68;0.68;;;5.10;99.90;;;;;;4367154;32;20055;-63
2022/11/19 12:51:52;;;;;;;0.40;0.40;;;5.00;99.90;;;;;;4371417;32;20115;-63
2022/11/19 12:54:40;;;;;;;3.37;1.02;;;4.80;99.90;;;;;;4367751;32;20134;-64
2022/11/19 12:57:39;;;;;;;1.20;0.80;;;4.40;99.90;;;;;;4373357;32;20123;-63
2022/11/19 13:00:11;;;;;;;0.57;0.57;;;4.10;99.90;;;;;;4374164;32;20021;-62
2022/11/19 13:02:47;;;;;;;0.40;0.40;;;4.00;99.90;;;;;;4375881;32;20082;-63
2022/11/19 13:05:20;;;;;;;0.50;0.50;;;3.80;99.90;;;;;;4358025;32;20067;-64
2022/11/19 13:07:53;;;;;;;0.35;0.35;;;3.70;99.90;;;;;;4356822;32;20098;-62
2022/11/19 13:10:24;;;;;;;0.50;0.50;;;3.50;99.90;;;;;;4373412;32;20082;-63
2022/11/19 13:12:53;;;;;;;0.60;0.60;;;3.40;99.90;;;;;;4373024;32;20188;-62
2022/11/19 13:15:30;;;;;;;0.77;0.77;;;3.50;99.90;;;;;;4373304;32;20128;-63